sensor_id;sensor_type;location;lat;lon;timestamp;P1;durP1;ratioP1;P2;durP2;ratioP2
21114;SDS011;10715;48.546;9.896;2024-01-30T00:01:29;11.23;;;6.93;;
21114;SDS011;10715;48.546;9.896;2024-01-30T00:03:54;10.20;;;6.80;;
21114;SDS011;10715;48.546;9.896;2024-01-30T00:06:20;12.93;;;8.00;;
21114;SDS011;10715;48.546;9.896;2024-01-30T00:08:46;16.37;;;9.07;;
21114;SDS011;10715;48.546;9.896;2024-01-30T00:11:14;11.80;;;8.13;;
21114;SDS011;10715;48.546;9.896;2024-01-30T00:13:40;10.73;;;6.97;;
21114;SDS011;10715;48.546;9.896;2024-01-30T00:16:06;14.47;;;8.60;;
21114;SDS011;10715;48.546;9.896;2024-01-30T00:18:33;15.50;;;7.57;;
21114;SDS011;10715;48.546;9.896;2024-01-30T00:20:58;9.90;;;6.43;;
21114;SDS011;10715;48.546;9.896;2024-01-30T00:23:24;11.40;;;8.00;;
21114;SDS011;10715;48.546;9.896;2024-01-30T00:25:50;11.70;;;7.57;;
21114;SDS011;10715;48.546;9.896;2024-01-30T00:28:16;8.20;;;6.63;;
21114;SDS011;10715;48.546;9.896;2024-01-30T00:30:41;8.63;;;7.10;;
21114;SDS011;10715;48.546;9.896;2024-01-30T00:33:08;10.83;;;7.20;;
21114;SDS011;10715;48.546;9.896;2024-01-30T00:35:34;11.27;;;6.97;;
21114;SDS011;10715;48.546;9.896;2024-01-30T00:38:00;13.37;;;7.67;;
21114;SDS011;10715;48.546;9.896;2024-01-30T00:40:26;11.70;;;6.57;;
21114;SDS011;10715;48.546;9.896;2024-01-30T00:42:55;13.27;;;8.60;;
21114;SDS011;10715;48.546;9.896;2024-01-30T00:45:20;11.60;;;7.77;;
21114;SDS011;10715;48.546;9.896;2024-01-30T00:47:46;9.40;;;6.60;;
21114;SDS011;10715;48.546;9.896;2024-01-30T00:50:12;8.27;;;6.00;;
21114;SDS011;10715;48.546;9.896;2024-01-30T00:52:41;8.40;;;6.87;;
21114;SDS011;10715;48.546;9.896;2024-01-30T00:55:16;10.20;;;7.20;;
21114;SDS011;10715;48.546;9.896;2024-01-30T00:57:41;9.80;;;6.70;;
21114;SDS011;10715;48.546;9.896;2024-01-30T01:00:07;16.67;;;7.10;;
21114;SDS011;10715;48.546;9.896;2024-01-30T01:02:36;15.33;;;7.77;;
21114;SDS011;10715;48.546;9.896;2024-01-30T01:05:04;10.10;;;8.40;;
21114;SDS011;10715;48.546;9.896;2024-01-30T01:07:33;9.13;;;7.30;;
21114;SDS011;10715;48.546;9.896;2024-01-30T01:10:08;12.73;;;8.57;;
21114;SDS011;10715;48.546;9.896;2024-01-30T01:12:34;13.73;;;6.70;;
21114;SDS011;10715;48.546;9.896;2024-01-30T01:15:00;7.40;;;6.77;;
21114;SDS011;10715;48.546;9.896;2024-01-30T01:17:25;12.50;;;6.47;;
21114;SDS011;10715;48.546;9.896;2024-01-30T01:19:51;11.57;;;6.67;;
21114;SDS011;10715;48.546;9.896;2024-01-30T01:22:20;8.33;;;5.70;;
21114;SDS011;10715;48.546;9.896;2024-01-30T01:24:46;10.53;;;6.83;;
21114;SDS011;10715;48.546;9.896;2024-01-30T01:27:11;8.73;;;6.57;;
21114;SDS011;10715;48.546;9.896;2024-01-30T01:29:37;10.50;;;6.90;;
21114;SDS011;10715;48.546;9.896;2024-01-30T01:32:03;10.47;;;6.80;;
21114;SDS011;10715;48.546;9.896;2024-01-30T01:34:35;16.27;;;7.00;;
21114;SDS011;10715;48.546;9.896;2024-01-30T01:37:03;10.30;;;6.60;;
21114;SDS011;10715;48.546;9.896;2024-01-30T01:39:38;8.97;;;6.77;;
21114;SDS011;10715;48.546;9.896;2024-01-30T01:42:10;9.13;;;6.77;;
21114;SDS011;10715;48.546;9.896;2024-01-30T01:44:36;7.70;;;6.20;;
21114;SDS011;10715;48.546;9.896;2024-01-30T01:47:02;9.10;;;5.93;;
21114;SDS011;10715;48.546;9.896;2024-01-30T01:49:40;6.57;;;5.53;;
21114;SDS011;10715;48.546;9.896;2024-01-30T01:52:06;9.57;;;6.07;;
21114;SDS011;10715;48.546;9.896;2024-01-30T01:54:32;11.00;;;6.83;;
21114;SDS011;10715;48.546;9.896;2024-01-30T01:57:04;10.03;;;6.10;;
21114;SDS011;10715;48.546;9.896;2024-01-30T01:59:33;11.63;;;6.77;;
21114;SDS011;10715;48.546;9.896;2024-01-30T02:01:59;20.70;;;9.23;;
21114;SDS011;10715;48.546;9.896;2024-01-30T02:04:27;14.43;;;5.97;;
21114;SDS011;10715;48.546;9.896;2024-01-30T02:06:52;13.90;;;8.20;;
21114;SDS011;10715;48.546;9.896;2024-01-30T02:09:21;12.00;;;6.10;;
21114;SDS011;10715;48.546;9.896;2024-01-30T02:11:47;11.90;;;7.23;;
21114;SDS011;10715;48.546;9.896;2024-01-30T02:14:12;7.33;;;6.20;;
21114;SDS011;10715;48.546;9.896;2024-01-30T02:16:38;19.33;;;8.70;;
21114;SDS011;10715;48.546;9.896;2024-01-30T02:19:04;12.50;;;6.93;;
21114;SDS011;10715;48.546;9.896;2024-01-30T02:21:30;11.27;;;6.53;;
21114;SDS011;10715;48.546;9.896;2024-01-30T02:23:56;8.60;;;6.00;;
21114;SDS011;10715;48.546;9.896;2024-01-30T02:26:23;10.50;;;5.87;;
21114;SDS011;10715;48.546;9.896;2024-01-30T02:28:49;10.87;;;7.00;;
21114;SDS011;10715;48.546;9.896;2024-01-30T02:31:14;11.27;;;7.00;;
21114;SDS011;10715;48.546;9.896;2024-01-30T02:33:40;11.80;;;7.13;;
21114;SDS011;10715;48.546;9.896;2024-01-30T02:36:06;14.13;;;7.03;;
21114;SDS011;10715;48.546;9.896;2024-01-30T02:38:32;10.47;;;6.50;;
21114;SDS011;10715;48.546;9.896;2024-01-30T02:40:57;13.57;;;7.23;;
21114;SDS011;10715;48.546;9.896;2024-01-30T02:43:23;9.43;;;5.83;;
21114;SDS011;10715;48.546;9.896;2024-01-30T02:45:49;6.00;;;5.10;;
21114;SDS011;10715;48.546;9.896;2024-01-30T02:48:14;5.43;;;4.93;;
21114;SDS011;10715;48.546;9.896;2024-01-30T02:50:40;8.63;;;5.80;;
21114;SDS011;10715;48.546;9.896;2024-01-30T02:53:06;8.10;;;5.67;;
21114;SDS011;10715;48.546;9.896;2024-01-30T02:55:32;8.27;;;5.37;;
21114;SDS011;10715;48.546;9.896;2024-01-30T02:57:58;9.93;;;6.70;;
21114;SDS011;10715;48.546;9.896;2024-01-30T03:00:23;14.77;;;6.80;;
21114;SDS011;10715;48.546;9.896;2024-01-30T03:02:49;8.27;;;6.17;;
21114;SDS011;10715;48.546;9.896;2024-01-30T03:05:15;8.07;;;5.27;;
21114;SDS011;10715;48.546;9.896;2024-01-30T03:07:41;16.30;;;6.73;;
21114;SDS011;10715;48.546;9.896;2024-01-30T03:10:07;9.00;;;6.27;;
21114;SDS011;10715;48.546;9.896;2024-01-30T03:12:32;8.00;;;5.90;;
21114;SDS011;10715;48.546;9.896;2024-01-30T03:14:58;6.90;;;5.13;;
21114;SDS011;10715;48.546;9.896;2024-01-30T03:17:24;7.80;;;5.60;;
21114;SDS011;10715;48.546;9.896;2024-01-30T03:19:50;7.23;;;5.83;;
21114;SDS011;10715;48.546;9.896;2024-01-30T03:22:16;6.20;;;5.60;;
21114;SDS011;10715;48.546;9.896;2024-01-30T03:24:42;10.80;;;6.10;;
21114;SDS011;10715;48.546;9.896;2024-01-30T03:27:08;8.27;;;5.27;;
21114;SDS011;10715;48.546;9.896;2024-01-30T03:29:34;11.03;;;5.50;;
21114;SDS011;10715;48.546;9.896;2024-01-30T03:31:59;10.07;;;5.97;;
21114;SDS011;10715;48.546;9.896;2024-01-30T03:34:25;8.90;;;5.30;;
21114;SDS011;10715;48.546;9.896;2024-01-30T03:36:51;11.60;;;6.03;;
21114;SDS011;10715;48.546;9.896;2024-01-30T03:39:17;7.23;;;6.20;;
21114;SDS011;10715;48.546;9.896;2024-01-30T03:41:42;7.30;;;6.03;;
21114;SDS011;10715;48.546;9.896;2024-01-30T03:44:09;11.70;;;6.33;;
21114;SDS011;10715;48.546;9.896;2024-01-30T03:46:35;10.43;;;7.47;;
21114;SDS011;10715;48.546;9.896;2024-01-30T03:49:01;11.50;;;8.00;;
21114;SDS011;10715;48.546;9.896;2024-01-30T03:51:26;11.37;;;6.57;;
21114;SDS011;10715;48.546;9.896;2024-01-30T03:53:52;19.03;;;8.53;;
21114;SDS011;10715;48.546;9.896;2024-01-30T03:56:18;7.40;;;5.97;;
21114;SDS011;10715;48.546;9.896;2024-01-30T03:58:43;13.53;;;7.60;;
21114;SDS011;10715;48.546;9.896;2024-01-30T04:01:13;7.37;;;4.87;;
21114;SDS011;10715;48.546;9.896;2024-01-30T04:03:39;7.47;;;4.57;;
21114;SDS011;10715;48.546;9.896;2024-01-30T04:06:05;9.40;;;5.33;;
21114;SDS011;10715;48.546;9.896;2024-01-30T04:08:31;4.93;;;4.37;;
21114;SDS011;10715;48.546;9.896;2024-01-30T04:10:57;7.83;;;5.83;;
21114;SDS011;10715;48.546;9.896;2024-01-30T04:13:23;9.73;;;5.37;;
21114;SDS011;10715;48.546;9.896;2024-01-30T04:15:48;6.30;;;4.20;;
21114;SDS011;10715;48.546;9.896;2024-01-30T04:18:14;6.20;;;5.57;;
21114;SDS011;10715;48.546;9.896;2024-01-30T04:20:40;10.57;;;5.80;;
21114;SDS011;10715;48.546;9.896;2024-01-30T04:23:06;8.70;;;5.80;;
21114;SDS011;10715;48.546;9.896;2024-01-30T04:25:31;7.63;;;4.17;;
21114;SDS011;10715;48.546;9.896;2024-01-30T04:27:57;6.47;;;4.40;;
21114;SDS011;10715;48.546;9.896;2024-01-30T04:30:23;9.67;;;5.73;;
21114;SDS011;10715;48.546;9.896;2024-01-30T04:32:48;7.50;;;4.13;;
21114;SDS011;10715;48.546;9.896;2024-01-30T04:35:14;4.90;;;3.53;;
21114;SDS011;10715;48.546;9.896;2024-01-30T04:37:40;5.93;;;5.40;;
21114;SDS011;10715;48.546;9.896;2024-01-30T04:40:06;4.63;;;3.43;;
21114;SDS011;10715;48.546;9.896;2024-01-30T04:42:32;6.77;;;4.60;;
21114;SDS011;10715;48.546;9.896;2024-01-30T04:44:57;10.17;;;4.47;;
21114;SDS011;10715;48.546;9.896;2024-01-30T04:47:23;7.33;;;6.20;;
21114;SDS011;10715;48.546;9.896;2024-01-30T04:49:50;4.27;;;3.90;;
21114;SDS011;10715;48.546;9.896;2024-01-30T04:52:16;6.90;;;4.17;;
21114;SDS011;10715;48.546;9.896;2024-01-30T04:54:42;5.93;;;4.17;;
21114;SDS011;10715;48.546;9.896;2024-01-30T04:57:08;8.17;;;4.50;;
21114;SDS011;10715;48.546;9.896;2024-01-30T04:59:37;4.50;;;4.17;;
21114;SDS011;10715;48.546;9.896;2024-01-30T05:02:02;7.10;;;4.53;;
21114;SDS011;10715;48.546;9.896;2024-01-30T05:04:28;9.83;;;5.20;;
21114;SDS011;10715;48.546;9.896;2024-01-30T05:06:54;11.17;;;6.10;;
21114;SDS011;10715;48.546;9.896;2024-01-30T05:09:20;6.73;;;5.43;;
21114;SDS011;10715;48.546;9.896;2024-01-30T05:11:46;6.20;;;5.27;;
21114;SDS011;10715;48.546;9.896;2024-01-30T05:14:12;7.53;;;4.57;;
21114;SDS011;10715;48.546;9.896;2024-01-30T05:16:40;5.90;;;3.03;;
21114;SDS011;10715;48.546;9.896;2024-01-30T05:19:06;4.77;;;4.00;;
21114;SDS011;10715;48.546;9.896;2024-01-30T05:21:31;8.40;;;3.43;;
21114;SDS011;10715;48.546;9.896;2024-01-30T05:23:57;5.87;;;3.40;;
21114;SDS011;10715;48.546;9.896;2024-01-30T05:26:23;4.93;;;4.53;;
21114;SDS011;10715;48.546;9.896;2024-01-30T05:28:49;4.90;;;4.40;;
21114;SDS011;10715;48.546;9.896;2024-01-30T05:31:15;4.20;;;3.53;;
21114;SDS011;10715;48.546;9.896;2024-01-30T05:33:40;3.57;;;3.00;;
21114;SDS011;10715;48.546;9.896;2024-01-30T05:36:06;4.53;;;3.43;;
21114;SDS011;10715;48.546;9.896;2024-01-30T05:38:32;4.87;;;3.50;;
21114;SDS011;10715;48.546;9.896;2024-01-30T05:40:58;8.17;;;4.50;;
21114;SDS011;10715;48.546;9.896;2024-01-30T05:43:24;7.20;;;3.60;;
21114;SDS011;10715;48.546;9.896;2024-01-30T05:45:49;6.00;;;3.73;;
21114;SDS011;10715;48.546;9.896;2024-01-30T05:48:15;7.33;;;4.50;;
21114;SDS011;10715;48.546;9.896;2024-01-30T05:50:41;5.50;;;4.10;;
21114;SDS011;10715;48.546;9.896;2024-01-30T05:53:07;12.50;;;6.63;;
21114;SDS011;10715;48.546;9.896;2024-01-30T05:55:33;8.50;;;6.23;;
21114;SDS011;10715;48.546;9.896;2024-01-30T05:57:58;11.20;;;6.20;;
21114;SDS011;10715;48.546;9.896;2024-01-30T06:00:24;11.47;;;7.27;;
21114;SDS011;10715;48.546;9.896;2024-01-30T06:02:50;7.90;;;6.30;;
21114;SDS011;10715;48.546;9.896;2024-01-30T06:05:15;14.13;;;6.33;;
21114;SDS011;10715;48.546;9.896;2024-01-30T06:07:41;6.00;;;5.40;;
21114;SDS011;10715;48.546;9.896;2024-01-30T06:10:07;8.17;;;4.50;;
21114;SDS011;10715;48.546;9.896;2024-01-30T06:12:34;4.93;;;4.40;;
21114;SDS011;10715;48.546;9.896;2024-01-30T06:15:00;9.97;;;3.83;;
21114;SDS011;10715;48.546;9.896;2024-01-30T06:17:26;3.30;;;2.97;;
21114;SDS011;10715;48.546;9.896;2024-01-30T06:19:52;4.70;;;3.60;;
21114;SDS011;10715;48.546;9.896;2024-01-30T06:22:17;7.23;;;4.97;;
21114;SDS011;10715;48.546;9.896;2024-01-30T06:24:43;6.07;;;3.93;;
21114;SDS011;10715;48.546;9.896;2024-01-30T06:27:13;7.97;;;5.17;;
21114;SDS011;10715;48.546;9.896;2024-01-30T06:29:40;3.13;;;2.83;;
21114;SDS011;10715;48.546;9.896;2024-01-30T06:32:08;3.93;;;3.30;;
21114;SDS011;10715;48.546;9.896;2024-01-30T06:34:34;2.93;;;2.30;;
21114;SDS011;10715;48.546;9.896;2024-01-30T06:36:59;5.27;;;2.93;;
21114;SDS011;10715;48.546;9.896;2024-01-30T06:39:26;3.63;;;2.40;;
21114;SDS011;10715;48.546;9.896;2024-01-30T06:41:52;2.70;;;2.03;;
21114;SDS011;10715;48.546;9.896;2024-01-30T06:44:17;2.07;;;1.70;;
21114;SDS011;10715;48.546;9.896;2024-01-30T06:46:43;3.50;;;2.50;;
21114;SDS011;10715;48.546;9.896;2024-01-30T06:49:09;2.10;;;1.30;;
21114;SDS011;10715;48.546;9.896;2024-01-30T06:51:34;5.80;;;3.30;;
21114;SDS011;10715;48.546;9.896;2024-01-30T06:54:00;5.07;;;2.33;;
21114;SDS011;10715;48.546;9.896;2024-01-30T06:56:26;2.57;;;2.37;;
21114;SDS011;10715;48.546;9.896;2024-01-30T06:58:52;3.20;;;2.20;;
21114;SDS011;10715;48.546;9.896;2024-01-30T07:01:18;2.50;;;2.30;;
21114;SDS011;10715;48.546;9.896;2024-01-30T07:03:43;3.60;;;1.90;;
21114;SDS011;10715;48.546;9.896;2024-01-30T07:06:09;1.67;;;1.57;;
21114;SDS011;10715;48.546;9.896;2024-01-30T07:08:38;2.00;;;1.80;;
21114;SDS011;10715;48.546;9.896;2024-01-30T07:11:07;3.90;;;2.40;;
21114;SDS011;10715;48.546;9.896;2024-01-30T07:13:33;2.57;;;2.37;;
21114;SDS011;10715;48.546;9.896;2024-01-30T07:15:59;2.53;;;2.27;;
21114;SDS011;10715;48.546;9.896;2024-01-30T07:18:25;3.63;;;3.33;;
21114;SDS011;10715;48.546;9.896;2024-01-30T07:20:51;7.90;;;2.80;;
21114;SDS011;10715;48.546;9.896;2024-01-30T07:23:17;4.30;;;2.30;;
21114;SDS011;10715;48.546;9.896;2024-01-30T07:25:46;3.00;;;2.37;;
21114;SDS011;10715;48.546;9.896;2024-01-30T07:28:15;2.70;;;1.77;;
21114;SDS011;10715;48.546;9.896;2024-01-30T07:30:44;3.37;;;1.80;;
21114;SDS011;10715;48.546;9.896;2024-01-30T07:33:09;6.80;;;6.30;;
21114;SDS011;10715;48.546;9.896;2024-01-30T07:35:35;4.03;;;2.47;;
21114;SDS011;10715;48.546;9.896;2024-01-30T07:38:01;4.43;;;2.80;;
21114;SDS011;10715;48.546;9.896;2024-01-30T07:40:27;2.30;;;2.00;;
21114;SDS011;10715;48.546;9.896;2024-01-30T07:42:53;12.23;;;4.87;;
21114;SDS011;10715;48.546;9.896;2024-01-30T07:45:19;5.03;;;3.90;;
21114;SDS011;10715;48.546;9.896;2024-01-30T07:47:48;7.70;;;2.70;;
21114;SDS011;10715;48.546;9.896;2024-01-30T07:50:14;3.27;;;3.03;;
21114;SDS011;10715;48.546;9.896;2024-01-30T07:52:40;4.00;;;3.13;;
21114;SDS011;10715;48.546;9.896;2024-01-30T07:55:06;5.33;;;3.80;;
21114;SDS011;10715;48.546;9.896;2024-01-30T07:57:33;2.50;;;2.30;;
21114;SDS011;10715;48.546;9.896;2024-01-30T07:59:59;2.40;;;1.30;;
21114;SDS011;10715;48.546;9.896;2024-01-30T08:02:28;4.17;;;2.70;;
21114;SDS011;10715;48.546;9.896;2024-01-30T08:04:53;1.70;;;1.57;;
21114;SDS011;10715;48.546;9.896;2024-01-30T08:07:19;2.70;;;1.70;;
21114;SDS011;10715;48.546;9.896;2024-01-30T08:09:47;1.93;;;1.43;;
21114;SDS011;10715;48.546;9.896;2024-01-30T08:12:12;4.70;;;2.37;;
21114;SDS011;10715;48.546;9.896;2024-01-30T08:14:38;6.00;;;1.80;;
21114;SDS011;10715;48.546;9.896;2024-01-30T08:17:06;3.67;;;1.70;;
21114;SDS011;10715;48.546;9.896;2024-01-30T08:19:32;2.33;;;1.37;;
21114;SDS011;10715;48.546;9.896;2024-01-30T08:21:58;3.37;;;1.67;;
21114;SDS011;10715;48.546;9.896;2024-01-30T08:24:24;5.90;;;2.07;;
21114;SDS011;10715;48.546;9.896;2024-01-30T08:26:50;4.30;;;2.30;;
21114;SDS011;10715;48.546;9.896;2024-01-30T08:29:16;3.63;;;1.47;;
21114;SDS011;10715;48.546;9.896;2024-01-30T08:31:41;2.67;;;2.17;;
21114;SDS011;10715;48.546;9.896;2024-01-30T08:34:07;2.30;;;2.10;;
21114;SDS011;10715;48.546;9.896;2024-01-30T08:36:33;3.23;;;2.87;;
21114;SDS011;10715;48.546;9.896;2024-01-30T08:38:59;5.57;;;3.50;;
21114;SDS011;10715;48.546;9.896;2024-01-30T08:41:24;4.47;;;2.67;;
21114;SDS011;10715;48.546;9.896;2024-01-30T08:43:51;6.70;;;3.77;;
21114;SDS011;10715;48.546;9.896;2024-01-30T08:46:18;5.17;;;3.70;;
21114;SDS011;10715;48.546;9.896;2024-01-30T08:48:44;7.70;;;3.27;;
21114;SDS011;10715;48.546;9.896;2024-01-30T08:51:10;7.23;;;2.73;;
21114;SDS011;10715;48.546;9.896;2024-01-30T08:53:36;3.17;;;3.07;;
21114;SDS011;10715;48.546;9.896;2024-01-30T08:56:02;10.03;;;6.20;;
21114;SDS011;10715;48.546;9.896;2024-01-30T08:58:28;13.83;;;10.13;;
21114;SDS011;10715;48.546;9.896;2024-01-30T09:00:54;11.03;;;9.60;;
21114;SDS011;10715;48.546;9.896;2024-01-30T09:03:20;9.70;;;6.93;;
21114;SDS011;10715;48.546;9.896;2024-01-30T09:05:46;7.07;;;6.40;;
21114;SDS011;10715;48.546;9.896;2024-01-30T09:08:11;13.17;;;6.53;;
21114;SDS011;10715;48.546;9.896;2024-01-30T09:10:37;8.10;;;5.63;;
21114;SDS011;10715;48.546;9.896;2024-01-30T09:13:03;9.90;;;8.20;;
21114;SDS011;10715;48.546;9.896;2024-01-30T09:15:29;14.03;;;8.90;;
21114;SDS011;10715;48.546;9.896;2024-01-30T09:17:54;13.87;;;9.00;;
21114;SDS011;10715;48.546;9.896;2024-01-30T09:20:20;10.60;;;8.60;;
21114;SDS011;10715;48.546;9.896;2024-01-30T09:22:47;17.30;;;9.17;;
21114;SDS011;10715;48.546;9.896;2024-01-30T09:25:14;12.77;;;8.30;;
21114;SDS011;10715;48.546;9.896;2024-01-30T09:27:40;11.00;;;6.47;;
21114;SDS011;10715;48.546;9.896;2024-01-30T09:30:05;16.17;;;8.50;;
21114;SDS011;10715;48.546;9.896;2024-01-30T09:32:32;22.53;;;12.50;;
21114;SDS011;10715;48.546;9.896;2024-01-30T09:34:58;18.93;;;10.83;;
21114;SDS011;10715;48.546;9.896;2024-01-30T09:37:23;22.40;;;10.17;;
21114;SDS011;10715;48.546;9.896;2024-01-30T09:39:49;13.40;;;8.50;;
21114;SDS011;10715;48.546;9.896;2024-01-30T09:42:21;15.07;;;10.87;;
21114;SDS011;10715;48.546;9.896;2024-01-30T09:45:04;11.47;;;10.10;;
21114;SDS011;10715;48.546;9.896;2024-01-30T09:47:31;14.60;;;9.80;;
21114;SDS011;10715;48.546;9.896;2024-01-30T09:50:00;21.67;;;13.90;;
21114;SDS011;10715;48.546;9.896;2024-01-30T09:52:27;17.73;;;13.27;;
21114;SDS011;10715;48.546;9.896;2024-01-30T09:54:53;24.50;;;15.27;;
21114;SDS011;10715;48.546;9.896;2024-01-30T09:57:19;20.10;;;12.33;;
21114;SDS011;10715;48.546;9.896;2024-01-30T09:59:46;17.57;;;13.77;;
21114;SDS011;10715;48.546;9.896;2024-01-30T10:02:11;18.60;;;12.83;;
21114;SDS011;10715;48.546;9.896;2024-01-30T10:04:38;20.93;;;12.50;;
21114;SDS011;10715;48.546;9.896;2024-01-30T10:07:04;13.47;;;11.47;;
21114;SDS011;10715;48.546;9.896;2024-01-30T10:09:32;13.57;;;10.40;;
21114;SDS011;10715;48.546;9.896;2024-01-30T10:12:01;20.60;;;11.37;;
21114;SDS011;10715;48.546;9.896;2024-01-30T10:14:28;10.23;;;9.23;;
21114;SDS011;10715;48.546;9.896;2024-01-30T10:16:55;14.60;;;9.13;;
21114;SDS011;10715;48.546;9.896;2024-01-30T10:19:21;13.07;;;10.77;;
21114;SDS011;10715;48.546;9.896;2024-01-30T10:21:46;14.50;;;10.50;;
21114;SDS011;10715;48.546;9.896;2024-01-30T10:24:12;12.70;;;9.23;;
21114;SDS011;10715;48.546;9.896;2024-01-30T10:26:39;11.40;;;10.03;;
21114;SDS011;10715;48.546;9.896;2024-01-30T10:29:04;16.33;;;9.90;;
21114;SDS011;10715;48.546;9.896;2024-01-30T10:31:30;15.10;;;11.03;;
21114;SDS011;10715;48.546;9.896;2024-01-30T10:33:56;14.07;;;10.10;;
21114;SDS011;10715;48.546;9.896;2024-01-30T10:36:23;13.47;;;9.27;;
21114;SDS011;10715;48.546;9.896;2024-01-30T10:38:55;18.53;;;13.40;;
21114;SDS011;10715;48.546;9.896;2024-01-30T10:41:26;13.83;;;11.60;;
21114;SDS011;10715;48.546;9.896;2024-01-30T10:44:02;26.30;;;13.97;;
21114;SDS011;10715;48.546;9.896;2024-01-30T10:46:35;18.43;;;11.20;;
21114;SDS011;10715;48.546;9.896;2024-01-30T10:49:04;20.10;;;14.73;;
21114;SDS011;10715;48.546;9.896;2024-01-30T10:51:30;21.43;;;14.57;;
21114;SDS011;10715;48.546;9.896;2024-01-30T10:53:57;12.33;;;9.57;;
21114;SDS011;10715;48.546;9.896;2024-01-30T10:56:24;15.77;;;8.03;;
21114;SDS011;10715;48.546;9.896;2024-01-30T10:58:53;9.67;;;8.50;;
21114;SDS011;10715;48.546;9.896;2024-01-30T11:01:20;15.13;;;7.77;;
21114;SDS011;10715;48.546;9.896;2024-01-30T11:03:53;13.93;;;7.53;;
21114;SDS011;10715;48.546;9.896;2024-01-30T11:06:25;18.33;;;8.57;;
21114;SDS011;10715;48.546;9.896;2024-01-30T11:09:05;14.73;;;7.90;;
21114;SDS011;10715;48.546;9.896;2024-01-30T11:11:51;14.67;;;8.80;;
21114;SDS011;10715;48.546;9.896;2024-01-30T11:14:30;8.53;;;6.53;;
21114;SDS011;10715;48.546;9.896;2024-01-30T11:16:59;14.00;;;8.57;;
21114;SDS011;10715;48.546;9.896;2024-01-30T11:19:25;17.90;;;8.80;;
21114;SDS011;10715;48.546;9.896;2024-01-30T11:21:52;13.60;;;8.00;;
21114;SDS011;10715;48.546;9.896;2024-01-30T11:24:28;15.87;;;8.10;;
21114;SDS011;10715;48.546;9.896;2024-01-30T11:26:57;21.10;;;9.40;;
21114;SDS011;10715;48.546;9.896;2024-01-30T11:29:29;18.57;;;9.00;;
21114;SDS011;10715;48.546;9.896;2024-01-30T11:31:55;14.27;;;9.43;;
21114;SDS011;10715;48.546;9.896;2024-01-30T11:34:23;11.80;;;9.43;;
21114;SDS011;10715;48.546;9.896;2024-01-30T11:36:59;12.90;;;6.53;;
21114;SDS011;10715;48.546;9.896;2024-01-30T11:39:31;7.90;;;7.10;;
21114;SDS011;10715;48.546;9.896;2024-01-30T11:41:57;9.33;;;7.50;;
21114;SDS011;10715;48.546;9.896;2024-01-30T11:44:24;8.87;;;6.77;;
21114;SDS011;10715;48.546;9.896;2024-01-30T11:46:51;11.07;;;7.70;;
21114;SDS011;10715;48.546;9.896;2024-01-30T11:49:17;10.97;;;8.17;;
21114;SDS011;10715;48.546;9.896;2024-01-30T11:51:46;10.70;;;7.60;;
21114;SDS011;10715;48.546;9.896;2024-01-30T11:54:14;16.97;;;8.73;;
21114;SDS011;10715;48.546;9.896;2024-01-30T11:56:41;10.73;;;7.60;;
21114;SDS011;10715;48.546;9.896;2024-01-30T11:59:08;12.43;;;8.10;;
21114;SDS011;10715;48.546;9.896;2024-01-30T12:01:34;12.93;;;8.10;;
21114;SDS011;10715;48.546;9.896;2024-01-30T12:04:00;8.53;;;7.33;;
21114;SDS011;10715;48.546;9.896;2024-01-30T12:06:26;10.40;;;6.83;;
21114;SDS011;10715;48.546;9.896;2024-01-30T12:08:59;5.30;;;4.83;;
21114;SDS011;10715;48.546;9.896;2024-01-30T12:11:26;6.43;;;5.80;;
21114;SDS011;10715;48.546;9.896;2024-01-30T12:13:53;12.70;;;7.10;;
21114;SDS011;10715;48.546;9.896;2024-01-30T12:16:19;11.17;;;6.47;;
21114;SDS011;10715;48.546;9.896;2024-01-30T12:18:45;7.20;;;6.47;;
21114;SDS011;10715;48.546;9.896;2024-01-30T12:21:11;10.67;;;6.90;;
21114;SDS011;10715;48.546;9.896;2024-01-30T12:23:37;6.83;;;5.47;;
21114;SDS011;10715;48.546;9.896;2024-01-30T12:26:03;11.23;;;6.00;;
21114;SDS011;10715;48.546;9.896;2024-01-30T12:28:32;8.37;;;5.73;;
21114;SDS011;10715;48.546;9.896;2024-01-30T12:31:02;8.90;;;5.53;;
21114;SDS011;10715;48.546;9.896;2024-01-30T12:33:31;7.20;;;6.47;;
21114;SDS011;10715;48.546;9.896;2024-01-30T12:35:57;9.20;;;7.20;;
21114;SDS011;10715;48.546;9.896;2024-01-30T12:38:26;9.40;;;7.63;;
21114;SDS011;10715;48.546;9.896;2024-01-30T12:40:55;11.97;;;7.80;;
21114;SDS011;10715;48.546;9.896;2024-01-30T12:43:22;12.10;;;6.80;;
21114;SDS011;10715;48.546;9.896;2024-01-30T12:45:49;14.73;;;8.03;;
21114;SDS011;10715;48.546;9.896;2024-01-30T12:48:15;10.87;;;8.50;;
21114;SDS011;10715;48.546;9.896;2024-01-30T12:50:41;8.50;;;6.30;;
21114;SDS011;10715;48.546;9.896;2024-01-30T12:53:07;11.90;;;8.57;;
21114;SDS011;10715;48.546;9.896;2024-01-30T12:55:34;19.03;;;7.37;;
21114;SDS011;10715;48.546;9.896;2024-01-30T12:58:00;8.20;;;6.97;;
21114;SDS011;10715;48.546;9.896;2024-01-30T13:00:26;11.67;;;6.43;;
21114;SDS011;10715;48.546;9.896;2024-01-30T13:02:51;10.93;;;5.50;;
21114;SDS011;10715;48.546;9.896;2024-01-30T13:05:17;12.20;;;5.70;;
21114;SDS011;10715;48.546;9.896;2024-01-30T13:07:43;7.57;;;6.83;;
21114;SDS011;10715;48.546;9.896;2024-01-30T13:10:09;13.57;;;7.20;;
21114;SDS011;10715;48.546;9.896;2024-01-30T13:12:35;11.13;;;5.07;;
21114;SDS011;10715;48.546;9.896;2024-01-30T13:15:02;13.13;;;6.37;;
21114;SDS011;10715;48.546;9.896;2024-01-30T13:17:29;8.73;;;5.20;;
21114;SDS011;10715;48.546;9.896;2024-01-30T13:19:56;6.27;;;5.07;;
21114;SDS011;10715;48.546;9.896;2024-01-30T13:22:21;9.53;;;5.53;;
21114;SDS011;10715;48.546;9.896;2024-01-30T13:24:47;6.57;;;4.37;;
21114;SDS011;10715;48.546;9.896;2024-01-30T13:27:13;10.00;;;5.07;;
21114;SDS011;10715;48.546;9.896;2024-01-30T13:29:39;8.70;;;5.97;;
21114;SDS011;10715;48.546;9.896;2024-01-30T13:32:05;5.40;;;4.90;;
21114;SDS011;10715;48.546;9.896;2024-01-30T13:34:31;9.73;;;6.27;;
21114;SDS011;10715;48.546;9.896;2024-01-30T13:36:56;6.80;;;6.10;;
21114;SDS011;10715;48.546;9.896;2024-01-30T13:39:22;8.27;;;6.57;;
21114;SDS011;10715;48.546;9.896;2024-01-30T13:41:48;6.80;;;5.57;;
21114;SDS011;10715;48.546;9.896;2024-01-30T13:44:15;9.33;;;5.33;;
21114;SDS011;10715;48.546;9.896;2024-01-30T13:46:41;13.30;;;6.90;;
21114;SDS011;10715;48.546;9.896;2024-01-30T13:49:07;10.30;;;5.70;;
21114;SDS011;10715;48.546;9.896;2024-01-30T13:51:33;8.23;;;5.57;;
21114;SDS011;10715;48.546;9.896;2024-01-30T13:53:59;10.07;;;5.30;;
21114;SDS011;10715;48.546;9.896;2024-01-30T13:56:24;8.50;;;6.30;;
21114;SDS011;10715;48.546;9.896;2024-01-30T13:58:51;8.93;;;5.47;;
21114;SDS011;10715;48.546;9.896;2024-01-30T14:01:18;6.53;;;5.67;;
21114;SDS011;10715;48.546;9.896;2024-01-30T14:03:44;11.50;;;7.30;;
21114;SDS011;10715;48.546;9.896;2024-01-30T14:06:10;9.40;;;5.13;;
21114;SDS011;10715;48.546;9.896;2024-01-30T14:08:36;9.33;;;6.13;;
21114;SDS011;10715;48.546;9.896;2024-01-30T14:11:02;10.63;;;5.90;;
21114;SDS011;10715;48.546;9.896;2024-01-30T14:13:29;9.97;;;6.87;;
21114;SDS011;10715;48.546;9.896;2024-01-30T14:15:55;7.93;;;7.13;;
21114;SDS011;10715;48.546;9.896;2024-01-30T14:18:22;8.30;;;6.87;;
21114;SDS011;10715;48.546;9.896;2024-01-30T14:20:48;11.03;;;7.70;;
21114;SDS011;10715;48.546;9.896;2024-01-30T14:23:13;12.17;;;7.83;;
21114;SDS011;10715;48.546;9.896;2024-01-30T14:25:39;13.63;;;9.47;;
21114;SDS011;10715;48.546;9.896;2024-01-30T14:28:05;13.40;;;7.97;;
21114;SDS011;10715;48.546;9.896;2024-01-30T14:30:31;10.53;;;8.47;;
21114;SDS011;10715;48.546;9.896;2024-01-30T14:32:57;14.27;;;9.60;;
21114;SDS011;10715;48.546;9.896;2024-01-30T14:35:22;13.50;;;8.40;;
21114;SDS011;10715;48.546;9.896;2024-01-30T14:37:48;8.53;;;7.50;;